sensor_id;sensor_type;location;lat;lon;timestamp;P1;durP1;ratioP1;P2;durP2;ratioP2
66437;SDS011;54537;47.972;11.662;2023-10-31T00:01:05;1.02;;;0.40;;
66437;SDS011;54537;47.972;11.662;2023-10-31T00:03:31;1.90;;;0.60;;
66437;SDS011;54537;47.972;11.662;2023-10-31T00:05:58;0.50;;;0.50;;
66437;SDS011;54537;47.972;11.662;2023-10-31T00:08:24;0.40;;;0.40;;
66437;SDS011;54537;47.972;11.662;2023-10-31T00:10:51;0.65;;;0.50;;
66437;SDS011;54537;47.972;11.662;2023-10-31T00:13:17;1.80;;;0.50;;
66437;SDS011;54537;47.972;11.662;2023-10-31T00:15:45;0.47;;;0.47;;
66437;SDS011;54537;47.972;11.662;2023-10-31T00:18:12;1.60;;;0.40;;
66437;SDS011;54537;47.972;11.662;2023-10-31T00:20:38;0.90;;;0.30;;
66437;SDS011;54537;47.972;11.662;2023-10-31T00:23:05;0.70;;;0.40;;
66437;SDS011;54537;47.972;11.662;2023-10-31T00:25:31;3.50;;;0.63;;
66437;SDS011;54537;47.972;11.662;2023-10-31T00:27:57;0.75;;;0.50;;
66437;SDS011;54537;47.972;11.662;2023-10-31T00:30:24;1.05;;;0.57;;
66437;SDS011;54537;47.972;11.662;2023-10-31T00:32:52;0.88;;;0.60;;
66437;SDS011;54537;47.972;11.662;2023-10-31T00:35:18;0.47;;;0.40;;
66437;SDS011;54537;47.972;11.662;2023-10-31T00:37:45;0.32;;;0.30;;
66437;SDS011;54537;47.972;11.662;2023-10-31T00:40:12;0.75;;;0.30;;
66437;SDS011;54537;47.972;11.662;2023-10-31T00:42:41;0.90;;;0.60;;
66437;SDS011;54537;47.972;11.662;2023-10-31T00:45:08;0.57;;;0.40;;
66437;SDS011;54537;47.972;11.662;2023-10-31T00:47:35;1.00;;;0.50;;
66437;SDS011;54537;47.972;11.662;2023-10-31T00:50:03;0.80;;;0.35;;
66437;SDS011;54537;47.972;11.662;2023-10-31T00:52:30;0.30;;;0.30;;
66437;SDS011;54537;47.972;11.662;2023-10-31T00:54:57;1.88;;;0.40;;
66437;SDS011;54537;47.972;11.662;2023-10-31T00:57:23;0.55;;;0.40;;
66437;SDS011;54537;47.972;11.662;2023-10-31T00:59:50;0.30;;;0.30;;
66437;SDS011;54537;47.972;11.662;2023-10-31T01:02:16;0.32;;;0.22;;
66437;SDS011;54537;47.972;11.662;2023-10-31T01:04:43;1.17;;;0.40;;
66437;SDS011;54537;47.972;11.662;2023-10-31T01:07:10;0.25;;;0.25;;
66437;SDS011;54537;47.972;11.662;2023-10-31T01:09:37;0.52;;;0.30;;
66437;SDS011;54537;47.972;11.662;2023-10-31T01:12:04;0.43;;;0.30;;
66437;SDS011;54537;47.972;11.662;2023-10-31T01:14:31;0.20;;;0.20;;
66437;SDS011;54537;47.972;11.662;2023-10-31T01:16:58;0.15;;;0.10;;
66437;SDS011;54537;47.972;11.662;2023-10-31T01:19:24;0.13;;;0.13;;
66437;SDS011;54537;47.972;11.662;2023-10-31T01:21:51;0.10;;;0.10;;
66437;SDS011;54537;47.972;11.662;2023-10-31T01:24:19;0.20;;;0.20;;
66437;SDS011;54537;47.972;11.662;2023-10-31T01:26:45;0.20;;;0.20;;
66437;SDS011;54537;47.972;11.662;2023-10-31T01:29:12;0.40;;;0.17;;
66437;SDS011;54537;47.972;11.662;2023-10-31T01:31:40;0.95;;;0.20;;
66437;SDS011;54537;47.972;11.662;2023-10-31T01:34:07;0.40;;;0.20;;
66437;SDS011;54537;47.972;11.662;2023-10-31T01:36:34;0.30;;;0.20;;
66437;SDS011;54537;47.972;11.662;2023-10-31T01:39:00;0.20;;;0.20;;
66437;SDS011;54537;47.972;11.662;2023-10-31T01:41:28;0.95;;;0.20;;
66437;SDS011;54537;47.972;11.662;2023-10-31T01:43:55;0.30;;;0.10;;
66437;SDS011;54537;47.972;11.662;2023-10-31T01:46:21;0.20;;;0.20;;
66437;SDS011;54537;47.972;11.662;2023-10-31T01:48:48;0.10;;;0.10;;
66437;SDS011;54537;47.972;11.662;2023-10-31T01:51:14;1.45;;;0.20;;
66437;SDS011;54537;47.972;11.662;2023-10-31T01:53:41;0.20;;;0.13;;
66437;SDS011;54537;47.972;11.662;2023-10-31T01:56:07;0.38;;;0.10;;
66437;SDS011;54537;47.972;11.662;2023-10-31T01:58:36;0.13;;;0.13;;
66437;SDS011;54537;47.972;11.662;2023-10-31T02:01:03;0.22;;;0.22;;
66437;SDS011;54537;47.972;11.662;2023-10-31T02:03:30;0.10;;;0.10;;
66437;SDS011;54537;47.972;11.662;2023-10-31T02:05:58;0.10;;;0.10;;
66437;SDS011;54537;47.972;11.662;2023-10-31T02:08:25;0.55;;;0.20;;
66437;SDS011;54537;47.972;11.662;2023-10-31T02:10:51;0.17;;;0.10;;
66437;SDS011;54537;47.972;11.662;2023-10-31T02:13:18;0.10;;;0.10;;
66437;SDS011;54537;47.972;11.662;2023-10-31T02:15:46;0.20;;;0.20;;
66437;SDS011;54537;47.972;11.662;2023-10-31T02:18:13;0.28;;;0.10;;
66437;SDS011;54537;47.972;11.662;2023-10-31T02:20:39;0.75;;;0.28;;
66437;SDS011;54537;47.972;11.662;2023-10-31T02:23:07;0.43;;;0.30;;
66437;SDS011;54537;47.972;11.662;2023-10-31T02:25:34;0.20;;;0.20;;
66437;SDS011;54537;47.972;11.662;2023-10-31T02:28:00;0.88;;;0.20;;
66437;SDS011;54537;47.972;11.662;2023-10-31T02:30:27;0.30;;;0.10;;
66437;SDS011;54537;47.972;11.662;2023-10-31T02:32:54;0.10;;;0.10;;
66437;SDS011;54537;47.972;11.662;2023-10-31T02:35:20;0.10;;;0.10;;
66437;SDS011;54537;47.972;11.662;2023-10-31T02:37:47;0.10;;;0.10;;
66437;SDS011;54537;47.972;11.662;2023-10-31T02:40:15;0.28;;;0.10;;
66437;SDS011;54537;47.972;11.662;2023-10-31T02:42:42;0.20;;;0.20;;
66437;SDS011;54537;47.972;11.662;2023-10-31T02:45:09;0.95;;;0.15;;
66437;SDS011;54537;47.972;11.662;2023-10-31T02:47:35;0.10;;;0.10;;
66437;SDS011;54537;47.972;11.662;2023-10-31T02:50:02;0.10;;;0.10;;
66437;SDS011;54537;47.972;11.662;2023-10-31T02:52:29;0.28;;;0.10;;
66437;SDS011;54537;47.972;11.662;2023-10-31T02:54:56;3.58;;;0.20;;
66437;SDS011;54537;47.972;11.662;2023-10-31T02:57:23;0.10;;;0.03;;
66437;SDS011;54537;47.972;11.662;2023-10-31T02:59:50;0.08;;;0.08;;
66437;SDS011;54537;47.972;11.662;2023-10-31T03:02:16;0.60;;;0.20;;
66437;SDS011;54537;47.972;11.662;2023-10-31T03:04:43;0.43;;;0.20;;
66437;SDS011;54537;47.972;11.662;2023-10-31T03:07:09;0.35;;;0.10;;
66437;SDS011;54537;47.972;11.662;2023-10-31T03:09:36;0.17;;;0.17;;
66437;SDS011;54537;47.972;11.662;2023-10-31T03:12:03;0.13;;;0.13;;
66437;SDS011;54537;47.972;11.662;2023-10-31T03:14:31;0.30;;;0.30;;
66437;SDS011;54537;47.972;11.662;2023-10-31T03:16:58;0.10;;;0.10;;
66437;SDS011;54537;47.972;11.662;2023-10-31T03:19:24;1.02;;;0.10;;
66437;SDS011;54537;47.972;11.662;2023-10-31T03:21:51;0.10;;;0.10;;
66437;SDS011;54537;47.972;11.662;2023-10-31T03:24:17;0.10;;;0.10;;
66437;SDS011;54537;47.972;11.662;2023-10-31T03:26:44;1.00;;;0.40;;
66437;SDS011;54537;47.972;11.662;2023-10-31T03:29:10;0.73;;;0.20;;
66437;SDS011;54537;47.972;11.662;2023-10-31T03:31:38;0.10;;;0.10;;
66437;SDS011;54537;47.972;11.662;2023-10-31T03:34:04;0.13;;;0.13;;
66437;SDS011;54537;47.972;11.662;2023-10-31T03:36:31;0.80;;;0.30;;
66437;SDS011;54537;47.972;11.662;2023-10-31T03:38:57;0.10;;;0.10;;
66437;SDS011;54537;47.972;11.662;2023-10-31T03:41:24;0.10;;;0.10;;
66437;SDS011;54537;47.972;11.662;2023-10-31T03:43:50;0.63;;;0.17;;
66437;SDS011;54537;47.972;11.662;2023-10-31T03:46:17;0.47;;;0.15;;
66437;SDS011;54537;47.972;11.662;2023-10-31T03:48:45;0.25;;;0.15;;
66437;SDS011;54537;47.972;11.662;2023-10-31T03:51:11;0.30;;;0.30;;
66437;SDS011;54537;47.972;11.662;2023-10-31T03:53:37;0.43;;;0.28;;
66437;SDS011;54537;47.972;11.662;2023-10-31T03:56:04;0.30;;;0.30;;
66437;SDS011;54537;47.972;11.662;2023-10-31T03:58:31;0.17;;;0.17;;
66437;SDS011;54537;47.972;11.662;2023-10-31T04:00:58;0.35;;;0.20;;
66437;SDS011;54537;47.972;11.662;2023-10-31T04:03:24;1.48;;;0.40;;
66437;SDS011;54537;47.972;11.662;2023-10-31T04:05:52;0.43;;;0.17;;
66437;SDS011;54537;47.972;11.662;2023-10-31T04:08:19;0.35;;;0.30;;
66437;SDS011;54537;47.972;11.662;2023-10-31T04:10:45;0.30;;;0.30;;
66437;SDS011;54537;47.972;11.662;2023-10-31T04:13:12;0.82;;;0.40;;
66437;SDS011;54537;47.972;11.662;2023-10-31T04:15:39;0.22;;;0.22;;
66437;SDS011;54537;47.972;11.662;2023-10-31T04:18:05;0.65;;;0.20;;
66437;SDS011;54537;47.972;11.662;2023-10-31T04:20:32;0.40;;;0.40;;
66437;SDS011;54537;47.972;11.662;2023-10-31T04:22:59;0.20;;;0.20;;
66437;SDS011;54537;47.972;11.662;2023-10-31T04:25:26;2.83;;;0.30;;
66437;SDS011;54537;47.972;11.662;2023-10-31T04:27:54;0.47;;;0.30;;
66437;SDS011;54537;47.972;11.662;2023-10-31T04:30:21;0.52;;;0.40;;
66437;SDS011;54537;47.972;11.662;2023-10-31T04:32:47;0.55;;;0.40;;
66437;SDS011;54537;47.972;11.662;2023-10-31T04:35:14;0.20;;;0.20;;
66437;SDS011;54537;47.972;11.662;2023-10-31T04:37:40;0.30;;;0.28;;
66437;SDS011;54537;47.972;11.662;2023-10-31T04:40:09;0.40;;;0.22;;
66437;SDS011;54537;47.972;11.662;2023-10-31T04:42:38;0.45;;;0.30;;
66437;SDS011;54537;47.972;11.662;2023-10-31T04:45:05;0.90;;;0.40;;
66437;SDS011;54537;47.972;11.662;2023-10-31T04:47:33;0.40;;;0.40;;
66437;SDS011;54537;47.972;11.662;2023-10-31T04:49:59;0.45;;;0.30;;
66437;SDS011;54537;47.972;11.662;2023-10-31T04:52:25;0.57;;;0.30;;
66437;SDS011;54537;47.972;11.662;2023-10-31T04:54:52;1.00;;;0.63;;
66437;SDS011;54537;47.972;11.662;2023-10-31T04:57:20;0.40;;;0.40;;
66437;SDS011;54537;47.972;11.662;2023-10-31T04:59:47;0.30;;;0.30;;
66437;SDS011;54537;47.972;11.662;2023-10-31T05:02:13;0.85;;;0.30;;
66437;SDS011;54537;47.972;11.662;2023-10-31T05:04:40;3.88;;;0.50;;
66437;SDS011;54537;47.972;11.662;2023-10-31T05:07:07;0.40;;;0.40;;
66437;SDS011;54537;47.972;11.662;2023-10-31T05:09:33;1.48;;;0.50;;
66437;SDS011;54537;47.972;11.662;2023-10-31T05:12:00;0.50;;;0.50;;
66437;SDS011;54537;47.972;11.662;2023-10-31T05:14:28;1.35;;;0.57;;
66437;SDS011;54537;47.972;11.662;2023-10-31T05:16:55;0.35;;;0.35;;
66437;SDS011;54537;47.972;11.662;2023-10-31T05:19:21;2.10;;;0.70;;
66437;SDS011;54537;47.972;11.662;2023-10-31T05:21:48;0.50;;;0.40;;
66437;SDS011;54537;47.972;11.662;2023-10-31T05:24:14;1.25;;;0.60;;
66437;SDS011;54537;47.972;11.662;2023-10-31T05:26:41;1.08;;;0.47;;
66437;SDS011;54537;47.972;11.662;2023-10-31T05:29:07;2.35;;;0.68;;
66437;SDS011;54537;47.972;11.662;2023-10-31T05:31:35;0.70;;;0.65;;
66437;SDS011;54537;47.972;11.662;2023-10-31T05:34:02;1.05;;;0.40;;
66437;SDS011;54537;47.972;11.662;2023-10-31T05:36:29;1.17;;;0.50;;
66437;SDS011;54537;47.972;11.662;2023-10-31T05:38:56;0.43;;;0.40;;
66437;SDS011;54537;47.972;11.662;2023-10-31T05:41:22;1.05;;;0.45;;
66437;SDS011;54537;47.972;11.662;2023-10-31T05:43:49;3.65;;;1.00;;
66437;SDS011;54537;47.972;11.662;2023-10-31T05:46:16;1.95;;;0.60;;
66437;SDS011;54537;47.972;11.662;2023-10-31T05:48:44;1.45;;;0.50;;
66437;SDS011;54537;47.972;11.662;2023-10-31T05:51:12;1.13;;;0.52;;
66437;SDS011;54537;47.972;11.662;2023-10-31T05:53:39;0.57;;;0.30;;
66437;SDS011;54537;47.972;11.662;2023-10-31T05:56:07;2.45;;;0.40;;
66437;SDS011;54537;47.972;11.662;2023-10-31T05:58:35;1.08;;;0.40;;
66437;SDS011;54537;47.972;11.662;2023-10-31T06:01:02;3.63;;;0.60;;
66437;SDS011;54537;47.972;11.662;2023-10-31T06:03:29;1.40;;;0.63;;
66437;SDS011;54537;47.972;11.662;2023-10-31T06:05:57;0.75;;;0.40;;
66437;SDS011;54537;47.972;11.662;2023-10-31T06:08:24;0.65;;;0.40;;
66437;SDS011;54537;47.972;11.662;2023-10-31T06:10:53;3.45;;;0.50;;
66437;SDS011;54537;47.972;11.662;2023-10-31T06:13:19;2.70;;;0.52;;
66437;SDS011;54537;47.972;11.662;2023-10-31T06:15:46;1.05;;;0.50;;
66437;SDS011;54537;47.972;11.662;2023-10-31T06:18:12;7.38;;;1.98;;
66437;SDS011;54537;47.972;11.662;2023-10-31T06:20:39;4.60;;;1.42;;
66437;SDS011;54537;47.972;11.662;2023-10-31T06:23:07;1.63;;;0.90;;
66437;SDS011;54537;47.972;11.662;2023-10-31T06:25:33;3.35;;;0.90;;
66437;SDS011;54537;47.972;11.662;2023-10-31T06:28:00;1.95;;;0.60;;
66437;SDS011;54537;47.972;11.662;2023-10-31T06:30:26;1.85;;;0.60;;
66437;SDS011;54537;47.972;11.662;2023-10-31T06:32:53;1.02;;;0.50;;
66437;SDS011;54537;47.972;11.662;2023-10-31T06:35:20;1.35;;;0.50;;
66437;SDS011;54537;47.972;11.662;2023-10-31T06:37:46;2.67;;;0.50;;
66437;SDS011;54537;47.972;11.662;2023-10-31T06:40:14;2.25;;;0.60;;
66437;SDS011;54537;47.972;11.662;2023-10-31T06:42:41;1.70;;;0.70;;
66437;SDS011;54537;47.972;11.662;2023-10-31T06:45:07;1.90;;;0.60;;
66437;SDS011;54537;47.972;11.662;2023-10-31T06:47:34;1.10;;;0.60;;
66437;SDS011;54537;47.972;11.662;2023-10-31T06:50:01;0.68;;;0.50;;
66437;SDS011;54537;47.972;11.662;2023-10-31T06:52:27;0.75;;;0.43;;
66437;SDS011;54537;47.972;11.662;2023-10-31T06:54:54;1.30;;;0.65;;
66437;SDS011;54537;47.972;11.662;2023-10-31T06:57:22;3.45;;;0.60;;
66437;SDS011;54537;47.972;11.662;2023-10-31T06:59:48;0.85;;;0.50;;
66437;SDS011;54537;47.972;11.662;2023-10-31T07:02:15;0.55;;;0.50;;
66437;SDS011;54537;47.972;11.662;2023-10-31T07:04:41;1.25;;;0.70;;
66437;SDS011;54537;47.972;11.662;2023-10-31T07:07:08;1.05;;;0.40;;
66437;SDS011;54537;47.972;11.662;2023-10-31T07:09:34;1.77;;;0.60;;
66437;SDS011;54537;47.972;11.662;2023-10-31T07:12:01;1.13;;;0.40;;
66437;SDS011;54537;47.972;11.662;2023-10-31T07:14:29;1.20;;;0.60;;
66437;SDS011;54537;47.972;11.662;2023-10-31T07:16:56;0.70;;;0.63;;
66437;SDS011;54537;47.972;11.662;2023-10-31T07:19:22;2.22;;;0.93;;
66437;SDS011;54537;47.972;11.662;2023-10-31T07:21:49;1.17;;;0.60;;
66437;SDS011;54537;47.972;11.662;2023-10-31T07:24:15;2.20;;;0.65;;
66437;SDS011;54537;47.972;11.662;2023-10-31T07:26:42;1.13;;;0.55;;
66437;SDS011;54537;47.972;11.662;2023-10-31T07:29:08;0.90;;;0.70;;
66437;SDS011;54537;47.972;11.662;2023-10-31T07:31:36;1.35;;;0.75;;
66437;SDS011;54537;47.972;11.662;2023-10-31T07:34:03;1.35;;;0.65;;
66437;SDS011;54537;47.972;11.662;2023-10-31T07:36:30;2.10;;;0.50;;
66437;SDS011;54537;47.972;11.662;2023-10-31T07:38:57;1.70;;;0.47;;
66437;SDS011;54537;47.972;11.662;2023-10-31T07:41:24;2.22;;;0.57;;
66437;SDS011;54537;47.972;11.662;2023-10-31T07:43:50;0.82;;;0.60;;
66437;SDS011;54537;47.972;11.662;2023-10-31T07:46:16;1.13;;;0.50;;
66437;SDS011;54537;47.972;11.662;2023-10-31T07:48:45;2.15;;;0.70;;
66437;SDS011;54537;47.972;11.662;2023-10-31T07:51:12;3.47;;;0.43;;
66437;SDS011;54537;47.972;11.662;2023-10-31T07:53:38;1.58;;;0.55;;
66437;SDS011;54537;47.972;11.662;2023-10-31T07:56:05;1.23;;;0.70;;
66437;SDS011;54537;47.972;11.662;2023-10-31T07:58:40;1.02;;;0.60;;
66437;SDS011;54537;47.972;11.662;2023-10-31T08:01:07;1.85;;;0.63;;
66437;SDS011;54537;47.972;11.662;2023-10-31T08:03:35;3.65;;;0.80;;
66437;SDS011;54537;47.972;11.662;2023-10-31T08:06:04;0.93;;;0.60;;
66437;SDS011;54537;47.972;11.662;2023-10-31T08:08:31;1.00;;;0.65;;
66437;SDS011;54537;47.972;11.662;2023-10-31T08:10:58;0.57;;;0.40;;
66437;SDS011;54537;47.972;11.662;2023-10-31T08:13:25;0.93;;;0.60;;
66437;SDS011;54537;47.972;11.662;2023-10-31T08:15:51;1.90;;;0.57;;
66437;SDS011;54537;47.972;11.662;2023-10-31T08:18:19;4.63;;;1.10;;
66437;SDS011;54537;47.972;11.662;2023-10-31T08:20:45;0.90;;;0.50;;
66437;SDS011;54537;47.972;11.662;2023-10-31T08:23:15;2.15;;;0.60;;
66437;SDS011;54537;47.972;11.662;2023-10-31T08:25:42;0.82;;;0.60;;
66437;SDS011;54537;47.972;11.662;2023-10-31T08:28:08;2.53;;;0.60;;
66437;SDS011;54537;47.972;11.662;2023-10-31T08:30:35;3.33;;;0.60;;
66437;SDS011;54537;47.972;11.662;2023-10-31T08:33:03;2.83;;;0.70;;
66437;SDS011;54537;47.972;11.662;2023-10-31T08:35:29;1.35;;;0.60;;
66437;SDS011;54537;47.972;11.662;2023-10-31T08:37:56;3.80;;;0.50;;
66437;SDS011;54537;47.972;11.662;2023-10-31T08:40:24;2.58;;;0.70;;
66437;SDS011;54537;47.972;11.662;2023-10-31T08:42:51;2.30;;;0.80;;
66437;SDS011;54537;47.972;11.662;2023-10-31T08:45:17;1.80;;;0.73;;
66437;SDS011;54537;47.972;11.662;2023-10-31T08:47:44;1.92;;;0.70;;
66437;SDS011;54537;47.972;11.662;2023-10-31T08:50:10;4.68;;;0.80;;
66437;SDS011;54537;47.972;11.662;2023-10-31T08:52:38;2.63;;;1.20;;
66437;SDS011;54537;47.972;11.662;2023-10-31T08:55:05;4.05;;;0.98;;
66437;SDS011;54537;47.972;11.662;2023-10-31T08:57:33;3.38;;;0.85;;
66437;SDS011;54537;47.972;11.662;2023-10-31T09:00:00;2.90;;;0.90;;
66437;SDS011;54537;47.972;11.662;2023-10-31T09:02:28;2.17;;;0.60;;
66437;SDS011;54537;47.972;11.662;2023-10-31T09:04:54;1.65;;;0.77;;
66437;SDS011;54537;47.972;11.662;2023-10-31T09:07:22;2.95;;;0.80;;
66437;SDS011;54537;47.972;11.662;2023-10-31T09:09:48;1.90;;;0.75;;
66437;SDS011;54537;47.972;11.662;2023-10-31T09:12:15;2.97;;;0.70;;
66437;SDS011;54537;47.972;11.662;2023-10-31T09:14:42;3.17;;;0.90;;
66437;SDS011;54537;47.972;11.662;2023-10-31T09:17:09;1.35;;;0.73;;
66437;SDS011;54537;47.972;11.662;2023-10-31T09:19:35;2.95;;;0.80;;
66437;SDS011;54537;47.972;11.662;2023-10-31T09:22:02;4.55;;;0.77;;
66437;SDS011;54537;47.972;11.662;2023-10-31T09:24:29;4.43;;;0.80;;
66437;SDS011;54537;47.972;11.662;2023-10-31T09:26:55;3.25;;;0.80;;
66437;SDS011;54537;47.972;11.662;2023-10-31T09:29:22;1.00;;;0.60;;
66437;SDS011;54537;47.972;11.662;2023-10-31T09:31:49;0.70;;;0.60;;
66437;SDS011;54537;47.972;11.662;2023-10-31T09:34:15;1.33;;;0.65;;
66437;SDS011;54537;47.972;11.662;2023-10-31T09:36:43;3.55;;;0.80;;
66437;SDS011;54537;47.972;11.662;2023-10-31T09:39:09;3.03;;;0.80;;
66437;SDS011;54537;47.972;11.662;2023-10-31T09:41:36;2.70;;;1.13;;
66437;SDS011;54537;47.972;11.662;2023-10-31T09:44:02;2.78;;;1.10;;
66437;SDS011;54537;47.972;11.662;2023-10-31T09:46:29;3.72;;;1.27;;
66437;SDS011;54537;47.972;11.662;2023-10-31T09:48:57;5.45;;;1.77;;
66437;SDS011;54537;47.972;11.662;2023-10-31T09:51:23;2.63;;;1.17;;
66437;SDS011;54537;47.972;11.662;2023-10-31T09:53:51;1.90;;;0.73;;
66437;SDS011;54537;47.972;11.662;2023-10-31T09:56:20;2.35;;;0.90;;
66437;SDS011;54537;47.972;11.662;2023-10-31T09:58:47;4.75;;;1.20;;
66437;SDS011;54537;47.972;11.662;2023-10-31T10:01:14;3.97;;;1.20;;
66437;SDS011;54537;47.972;11.662;2023-10-31T10:03:41;1.70;;;0.82;;
66437;SDS011;54537;47.972;11.662;2023-10-31T10:06:10;1.60;;;0.65;;
66437;SDS011;54537;47.972;11.662;2023-10-31T10:08:37;2.00;;;0.57;;
66437;SDS011;54537;47.972;11.662;2023-10-31T10:11:04;2.63;;;0.68;;
66437;SDS011;54537;47.972;11.662;2023-10-31T10:13:31;2.22;;;0.70;;
66437;SDS011;54537;47.972;11.662;2023-10-31T10:15:59;1.23;;;0.73;;
66437;SDS011;54537;47.972;11.662;2023-10-31T10:18:26;5.10;;;0.80;;
66437;SDS011;54537;47.972;11.662;2023-10-31T10:20:56;4.60;;;0.90;;
66437;SDS011;54537;47.972;11.662;2023-10-31T10:23:25;1.45;;;0.88;;
66437;SDS011;54537;47.972;11.662;2023-10-31T10:25:52;2.58;;;0.90;;
66437;SDS011;54537;47.972;11.662;2023-10-31T10:28:19;2.15;;;0.80;;
66437;SDS011;54537;47.972;11.662;2023-10-31T10:30:46;4.63;;;1.00;;
66437;SDS011;54537;47.972;11.662;2023-10-31T10:33:13;3.38;;;1.25;;
66437;SDS011;54537;47.972;11.662;2023-10-31T10:35:39;2.67;;;0.80;;
66437;SDS011;54537;47.972;11.662;2023-10-31T10:38:06;2.83;;;1.20;;
66437;SDS011;54537;47.972;11.662;2023-10-31T10:40:38;4.95;;;1.20;;
66437;SDS011;54537;47.972;11.662;2023-10-31T10:43:07;6.35;;;1.25;;
66437;SDS011;54537;47.972;11.662;2023-10-31T10:45:38;2.35;;;1.10;;
66437;SDS011;54537;47.972;11.662;2023-10-31T10:48:09;3.65;;;0.75;;
66437;SDS011;54537;47.972;11.662;2023-10-31T10:50:39;2.38;;;0.88;;
66437;SDS011;54537;47.972;11.662;2023-10-31T10:53:10;2.65;;;1.08;;
66437;SDS011;54537;47.972;11.662;2023-10-31T10:55:44;3.97;;;1.23;;
66437;SDS011;54537;47.972;11.662;2023-10-31T10:58:13;4.55;;;0.80;;
66437;SDS011;54537;47.972;11.662;2023-10-31T11:00:42;1.52;;;0.75;;
66437;SDS011;54537;47.972;11.662;2023-10-31T11:03:09;2.40;;;0.60;;
66437;SDS011;54537;47.972;11.662;2023-10-31T11:05:36;4.28;;;0.98;;
66437;SDS011;54537;47.972;11.662;2023-10-31T11:08:03;2.47;;;0.90;;
66437;SDS011;54537;47.972;11.662;2023-10-31T11:10:30;5.70;;;0.70;;
66437;SDS011;54537;47.972;11.662;2023-10-31T11:12:59;5.10;;;1.08;;
66437;SDS011;54537;47.972;11.662;2023-10-31T11:15:25;2.55;;;1.00;;
66437;SDS011;54537;47.972;11.662;2023-10-31T11:17:52;5.43;;;1.13;;
66437;SDS011;54537;47.972;11.662;2023-10-31T11:20:20;2.67;;;1.20;;
66437;SDS011;54537;47.972;11.662;2023-10-31T11:22:47;2.90;;;1.15;;
66437;SDS011;54537;47.972;11.662;2023-10-31T11:25:18;5.55;;;1.00;;
66437;SDS011;54537;47.972;11.662;2023-10-31T11:27:45;3.00;;;0.93;;
66437;SDS011;54537;47.972;11.662;2023-10-31T11:30:20;4.68;;;0.80;;
66437;SDS011;54537;47.972;11.662;2023-10-31T11:32:48;3.95;;;0.70;;
66437;SDS011;54537;47.972;11.662;2023-10-31T11:35:15;3.20;;;0.68;;
66437;SDS011;54537;47.972;11.662;2023-10-31T11:37:42;6.38;;;1.00;;
66437;SDS011;54537;47.972;11.662;2023-10-31T11:40:19;5.15;;;0.60;;
66437;SDS011;54537;47.972;11.662;2023-10-31T11:42:48;0.98;;;0.55;;
66437;SDS011;54537;47.972;11.662;2023-10-31T11:47:59;1.35;;;0.68;;
66437;SDS011;54537;47.972;11.662;2023-10-31T11:50:25;2.83;;;1.05;;
66437;SDS011;54537;47.972;11.662;2023-10-31T11:52:58;2.67;;;0.80;;
66437;SDS011;54537;47.972;11.662;2023-10-31T11:55:26;2.03;;;0.73;;
66437;SDS011;54537;47.972;11.662;2023-10-31T11:57:53;2.00;;;0.82;;
66437;SDS011;54537;47.972;11.662;2023-10-31T12:00:20;1.73;;;0.80;;
66437;SDS011;54537;47.972;11.662;2023-10-31T12:02:57;3.55;;;0.90;;
66437;SDS011;54537;47.972;11.662;2023-10-31T12:05:24;2.83;;;1.20;;
66437;SDS011;54537;47.972;11.662;2023-10-31T12:07:51;1.25;;;0.90;;
66437;SDS011;54537;47.972;11.662;2023-10-31T12:10:21;2.00;;;0.73;;
66437;SDS011;54537;47.972;11.662;2023-10-31T12:12:48;7.80;;;0.70;;
66437;SDS011;54537;47.972;11.662;2023-10-31T12:15:15;4.05;;;1.08;;
66437;SDS011;54537;47.972;11.662;2023-10-31T12:17:41;2.70;;;0.77;;
66437;SDS011;54537;47.972;11.662;2023-10-31T12:20:09;5.13;;;0.70;;
66437;SDS011;54537;47.972;11.662;2023-10-31T12:22:36;2.75;;;0.50;;
66437;SDS011;54537;47.972;11.662;2023-10-31T12:25:05;3.55;;;0.50;;
66437;SDS011;54537;47.972;11.662;2023-10-31T12:27:42;2.03;;;0.50;;
66437;SDS011;54537;47.972;11.662;2023-10-31T12:30:10;6.97;;;0.93;;
66437;SDS011;54537;47.972;11.662;2023-10-31T12:32:37;2.28;;;0.70;;
66437;SDS011;54537;47.972;11.662;2023-10-31T12:35:04;1.50;;;0.70;;
66437;SDS011;54537;47.972;11.662;2023-10-31T12:37:32;1.95;;;0.50;;
66437;SDS011;54537;47.972;11.662;2023-10-31T12:39:59;4.85;;;1.00;;
66437;SDS011;54537;47.972;11.662;2023-10-31T12:42:29;0.75;;;0.50;;
66437;SDS011;54537;47.972;11.662;2023-10-31T12:44:56;2.17;;;0.60;;
66437;SDS011;54537;47.972;11.662;2023-10-31T12:47:24;3.50;;;0.50;;
66437;SDS011;54537;47.972;11.662;2023-10-31T12:50:04;4.15;;;0.60;;
66437;SDS011;54537;47.972;11.662;2023-10-31T12:52:46;9.07;;;1.55;;
66437;SDS011;54537;47.972;11.662;2023-10-31T12:55:13;6.38;;;1.10;;
66437;SDS011;54537;47.972;11.662;2023-10-31T12:57:40;2.05;;;0.70;;
66437;SDS011;54537;47.972;11.662;2023-10-31T13:00:07;8.27;;;1.70;;
66437;SDS011;54537;47.972;11.662;2023-10-31T13:02:37;3.38;;;0.80;;
66437;SDS011;54537;47.972;11.662;2023-10-31T13:05:08;0.63;;;0.40;;
66437;SDS011;54537;47.972;11.662;2023-10-31T13:07:35;1.13;;;0.50;;
66437;SDS011;54537;47.972;11.662;2023-10-31T13:10:03;0.98;;;0.45;;
66437;SDS011;54537;47.972;11.662;2023-10-31T13:12:30;2.70;;;0.65;;
66437;SDS011;54537;47.972;11.662;2023-10-31T13:14:57;0.80;;;0.47;;
66437;SDS011;54537;47.972;11.662;2023-10-31T13:17:24;1.15;;;0.40;;
66437;SDS011;54537;47.972;11.662;2023-10-31T13:19:51;1.10;;;0.60;;
66437;SDS011;54537;47.972;11.662;2023-10-31T13:22:18;0.50;;;0.50;;
66437;SDS011;54537;47.972;11.662;2023-10-31T13:24:45;1.95;;;0.47;;
66437;SDS011;54537;47.972;11.662;2023-10-31T13:27:13;0.85;;;0.50;;
66437;SDS011;54537;47.972;11.662;2023-10-31T13:29:41;0.88;;;0.30;;
66437;SDS011;54537;47.972;11.662;2023-10-31T13:32:08;2.17;;;0.68;;
66437;SDS011;54537;47.972;11.662;2023-10-31T13:34:34;0.88;;;0.47;;
66437;SDS011;54537;47.972;11.662;2023-10-31T13:37:01;2.47;;;0.80;;
66437;SDS011;54537;47.972;11.662;2023-10-31T13:39:28;2.63;;;0.50;;
66437;SDS011;54537;47.972;11.662;2023-10-31T13:41:55;1.48;;;0.55;;
66437;SDS011;54537;47.972;11.662;2023-10-31T13:44:23;0.70;;;0.50;;
66437;SDS011;54537;47.972;11.662;2023-10-31T13:46:49;0.35;;;0.30;;
66437;SDS011;54537;47.972;11.662;2023-10-31T13:49:16;2.38;;;0.80;;
66437;SDS011;54537;47.972;11.662;2023-10-31T13:51:42;0.38;;;0.38;;
66437;SDS011;54537;47.972;11.662;2023-10-31T13:54:09;0.68;;;0.40;;
66437;SDS011;54537;47.972;11.662;2023-10-31T13:56:35;5.72;;;0.80;;
66437;SDS011;54537;47.972;11.662;2023-10-31T13:59:02;2.80;;;0.95;;
66437;SDS011;54537;47.972;11.662;2023-10-31T14:01:30;1.63;;;0.68;;
66437;SDS011;54537;47.972;11.662;2023-10-31T14:03:56;2.65;;;0.75;;
66437;SDS011;54537;47.972;11.662;2023-10-31T14:06:23;3.80;;;1.27;;
66437;SDS011;54537;47.972;11.662;2023-10-31T14:11:21;4.15;;;0.85;;
66437;SDS011;54537;47.972;11.662;2023-10-31T14:13:47;1.13;;;0.50;;
66437;SDS011;54537;47.972;11.662;2023-10-31T14:16:15;1.95;;;0.70;;
66437;SDS011;54537;47.972;11.662;2023-10-31T14:18:43;0.98;;;0.65;;
66437;SDS011;54537;47.972;11.662;2023-10-31T14:21:11;1.80;;;0.60;;
66437;SDS011;54537;47.972;11.662;2023-10-31T14:23:38;1.55;;;0.50;;
66437;SDS011;54537;47.972;11.662;2023-10-31T14:26:04;3.17;;;0.75;;
66437;SDS011;54537;47.972;11.662;2023-10-31T14:28:31;1.40;;;0.60;;
66437;SDS011;54537;47.972;11.662;2023-10-31T14:30:57;1.13;;;0.50;;
66437;SDS011;54537;47.972;11.662;2023-10-31T14:33:24;1.92;;;0.80;;
66437;SDS011;54537;47.972;11.662;2023-10-31T14:35:52;4.78;;;0.60;;
66437;SDS011;54537;47.972;11.662;2023-10-31T14:38:19;2.78;;;0.60;;